sensor_id;sensor_type;location;lat;lon;timestamp;temperature;humidity
5196;DHT22;2617;51.006;12.436;2024-01-30T00:00:08;4.20;99.90
5196;DHT22;2617;51.006;12.436;2024-01-30T00:05:11;4.20;99.90
5196;DHT22;2617;51.006;12.436;2024-01-30T00:10:14;4.20;99.90
5196;DHT22;2617;51.006;12.436;2024-01-30T00:15:16;4.30;99.90
5196;DHT22;2617;51.006;12.436;2024-01-30T00:20:19;4.30;99.90
5196;DHT22;2617;51.006;12.436;2024-01-30T00:25:22;4.20;99.90
5196;DHT22;2617;51.006;12.436;2024-01-30T00:30:24;4.20;99.90
5196;DHT22;2617;51.006;12.436;2024-01-30T00:35:27;4.10;99.90
5196;DHT22;2617;51.006;12.436;2024-01-30T00:40:30;4.00;99.90
5196;DHT22;2617;51.006;12.436;2024-01-30T00:45:33;4.00;99.90
5196;DHT22;2617;51.006;12.436;2024-01-30T00:50:35;4.00;99.90
5196;DHT22;2617;51.006;12.436;2024-01-30T00:55:37;4.00;99.90
5196;DHT22;2617;51.006;12.436;2024-01-30T01:00:41;3.90;99.90
5196;DHT22;2617;51.006;12.436;2024-01-30T01:05:44;3.80;99.90
5196;DHT22;2617;51.006;12.436;2024-01-30T01:10:47;3.70;99.90
5196;DHT22;2617;51.006;12.436;2024-01-30T01:15:49;3.70;99.90
5196;DHT22;2617;51.006;12.436;2024-01-30T01:20:52;3.70;99.90
5196;DHT22;2617;51.006;12.436;2024-01-30T01:25:55;3.60;99.90
5196;DHT22;2617;51.006;12.436;2024-01-30T01:30:57;3.50;99.90
5196;DHT22;2617;51.006;12.436;2024-01-30T01:36:00;3.50;99.90
5196;DHT22;2617;51.006;12.436;2024-01-30T01:41:03;3.50;99.90
5196;DHT22;2617;51.006;12.436;2024-01-30T01:46:06;3.50;99.90
5196;DHT22;2617;51.006;12.436;2024-01-30T01:51:08;3.60;99.90
5196;DHT22;2617;51.006;12.436;2024-01-30T01:56:12;3.70;99.90
5196;DHT22;2617;51.006;12.436;2024-01-30T02:01:14;3.70;99.90
5196;DHT22;2617;51.006;12.436;2024-01-30T02:06:18;3.60;99.90
5196;DHT22;2617;51.006;12.436;2024-01-30T02:11:20;3.60;99.90
5196;DHT22;2617;51.006;12.436;2024-01-30T02:16:23;3.60;99.90
5196;DHT22;2617;51.006;12.436;2024-01-30T02:21:25;3.60;99.90
5196;DHT22;2617;51.006;12.436;2024-01-30T02:26:28;3.50;99.90
5196;DHT22;2617;51.006;12.436;2024-01-30T02:31:31;3.50;99.90
5196;DHT22;2617;51.006;12.436;2024-01-30T02:36:33;3.50;99.90
5196;DHT22;2617;51.006;12.436;2024-01-30T02:41:36;3.50;99.90
5196;DHT22;2617;51.006;12.436;2024-01-30T02:46:39;3.50;99.90
5196;DHT22;2617;51.006;12.436;2024-01-30T02:51:42;3.50;99.90
5196;DHT22;2617;51.006;12.436;2024-01-30T02:56:44;3.50;99.90
5196;DHT22;2617;51.006;12.436;2024-01-30T03:01:46;3.50;99.90
5196;DHT22;2617;51.006;12.436;2024-01-30T03:06:49;3.60;99.90
5196;DHT22;2617;51.006;12.436;2024-01-30T03:11:51;3.60;99.90
5196;DHT22;2617;51.006;12.436;2024-01-30T03:16:54;3.50;99.90
5196;DHT22;2617;51.006;12.436;2024-01-30T03:21:56;3.40;99.90
5196;DHT22;2617;51.006;12.436;2024-01-30T03:26:58;3.50;99.90
5196;DHT22;2617;51.006;12.436;2024-01-30T03:32:02;3.70;99.90
5196;DHT22;2617;51.006;12.436;2024-01-30T03:37:05;3.70;99.90
5196;DHT22;2617;51.006;12.436;2024-01-30T03:42:08;3.60;99.90
5196;DHT22;2617;51.006;12.436;2024-01-30T03:47:10;3.60;99.90
5196;DHT22;2617;51.006;12.436;2024-01-30T03:52:13;3.60;99.90
5196;DHT22;2617;51.006;12.436;2024-01-30T03:57:16;3.50;99.90
5196;DHT22;2617;51.006;12.436;2024-01-30T04:02:18;3.50;99.90
5196;DHT22;2617;51.006;12.436;2024-01-30T04:07:21;3.70;99.90
5196;DHT22;2617;51.006;12.436;2024-01-30T04:12:24;3.60;99.90
5196;DHT22;2617;51.006;12.436;2024-01-30T04:17:26;3.60;99.90
5196;DHT22;2617;51.006;12.436;2024-01-30T04:22:29;3.70;99.70
5196;DHT22;2617;51.006;12.436;2024-01-30T04:27:32;3.60;99.60
5196;DHT22;2617;51.006;12.436;2024-01-30T04:32:34;3.60;99.70
5196;DHT22;2617;51.006;12.436;2024-01-30T04:37:37;3.50;99.90
5196;DHT22;2617;51.006;12.436;2024-01-30T04:42:39;3.40;99.90
5196;DHT22;2617;51.006;12.436;2024-01-30T04:47:41;3.30;99.90
5196;DHT22;2617;51.006;12.436;2024-01-30T04:52:45;3.20;99.90
5196;DHT22;2617;51.006;12.436;2024-01-30T04:57:47;3.20;99.90
5196;DHT22;2617;51.006;12.436;2024-01-30T05:02:49;3.20;99.80
5196;DHT22;2617;51.006;12.436;2024-01-30T05:07:52;3.30;99.70
5196;DHT22;2617;51.006;12.436;2024-01-30T05:12:54;3.30;99.40
5196;DHT22;2617;51.006;12.436;2024-01-30T05:17:57;3.20;99.40
5196;DHT22;2617;51.006;12.436;2024-01-30T05:22:59;3.10;99.40
5196;DHT22;2617;51.006;12.436;2024-01-30T05:28:02;3.10;99.30
5196;DHT22;2617;51.006;12.436;2024-01-30T05:33:04;3.10;99.00
5196;DHT22;2617;51.006;12.436;2024-01-30T05:38:06;3.30;98.80
5196;DHT22;2617;51.006;12.436;2024-01-30T05:43:09;3.40;98.60
5196;DHT22;2617;51.006;12.436;2024-01-30T05:48:11;3.50;98.60
5196;DHT22;2617;51.006;12.436;2024-01-30T05:53:14;3.50;98.80
5196;DHT22;2617;51.006;12.436;2024-01-30T05:58:17;3.50;99.40
5196;DHT22;2617;51.006;12.436;2024-01-30T06:03:20;3.30;99.90
5196;DHT22;2617;51.006;12.436;2024-01-30T06:08:22;3.30;99.90
5196;DHT22;2617;51.006;12.436;2024-01-30T06:13:25;3.20;99.90
5196;DHT22;2617;51.006;12.436;2024-01-30T06:18:28;3.40;99.90
5196;DHT22;2617;51.006;12.436;2024-01-30T06:23:31;3.30;99.90
5196;DHT22;2617;51.006;12.436;2024-01-30T06:28:34;3.30;99.90
5196;DHT22;2617;51.006;12.436;2024-01-30T06:33:36;3.30;99.90
5196;DHT22;2617;51.006;12.436;2024-01-30T06:38:39;3.30;99.90
5196;DHT22;2617;51.006;12.436;2024-01-30T06:43:41;3.40;99.90
5196;DHT22;2617;51.006;12.436;2024-01-30T06:48:44;3.70;99.90
5196;DHT22;2617;51.006;12.436;2024-01-30T06:53:46;3.80;99.40
5196;DHT22;2617;51.006;12.436;2024-01-30T06:58:50;3.90;99.50
5196;DHT22;2617;51.006;12.436;2024-01-30T07:03:52;3.90;99.60
5196;DHT22;2617;51.006;12.436;2024-01-30T07:08:54;3.80;99.60
5196;DHT22;2617;51.006;12.436;2024-01-30T07:13:58;4.00;99.30
5196;DHT22;2617;51.006;12.436;2024-01-30T07:19:00;4.00;99.20
5196;DHT22;2617;51.006;12.436;2024-01-30T07:24:03;4.20;98.90
5196;DHT22;2617;51.006;12.436;2024-01-30T07:29:06;4.20;98.80
5196;DHT22;2617;51.006;12.436;2024-01-30T07:34:09;4.30;98.70
5196;DHT22;2617;51.006;12.436;2024-01-30T07:39:11;4.30;98.70
5196;DHT22;2617;51.006;12.436;2024-01-30T07:44:14;4.40;98.70
5196;DHT22;2617;51.006;12.436;2024-01-30T07:49:16;4.50;98.60
5196;DHT22;2617;51.006;12.436;2024-01-30T07:54:19;4.80;98.20
5196;DHT22;2617;51.006;12.436;2024-01-30T07:59:22;4.70;98.10
5196;DHT22;2617;51.006;12.436;2024-01-30T08:04:24;4.90;97.70
5196;DHT22;2617;51.006;12.436;2024-01-30T08:09:27;5.10;97.50
5196;DHT22;2617;51.006;12.436;2024-01-30T08:14:29;5.20;96.90
5196;DHT22;2617;51.006;12.436;2024-01-30T08:19:33;5.60;96.60
5196;DHT22;2617;51.006;12.436;2024-01-30T08:24:35;5.50;96.50
5196;DHT22;2617;51.006;12.436;2024-01-30T08:29:37;5.70;96.40
5196;DHT22;2617;51.006;12.436;2024-01-30T08:34:40;5.90;96.30
5196;DHT22;2617;51.006;12.436;2024-01-30T08:39:43;6.00;96.30
5196;DHT22;2617;51.006;12.436;2024-01-30T08:44:45;6.10;96.30
5196;DHT22;2617;51.006;12.436;2024-01-30T08:49:48;6.20;96.20
5196;DHT22;2617;51.006;12.436;2024-01-30T08:54:50;6.20;96.20
5196;DHT22;2617;51.006;12.436;2024-01-30T08:59:54;6.40;96.40
5196;DHT22;2617;51.006;12.436;2024-01-30T09:04:56;6.30;96.30
5196;DHT22;2617;51.006;12.436;2024-01-30T09:09:59;6.40;96.30
5196;DHT22;2617;51.006;12.436;2024-01-30T09:15:03;6.50;96.40
5196;DHT22;2617;51.006;12.436;2024-01-30T09:20:06;6.50;96.30
5196;DHT22;2617;51.006;12.436;2024-01-30T09:25:09;6.60;96.20
5196;DHT22;2617;51.006;12.436;2024-01-30T09:30:12;6.60;96.50
5196;DHT22;2617;51.006;12.436;2024-01-30T09:35:15;6.90;96.80
5196;DHT22;2617;51.006;12.436;2024-01-30T09:40:18;6.90;96.70
5196;DHT22;2617;51.006;12.436;2024-01-30T09:45:23;7.10;96.70
5196;DHT22;2617;51.006;12.436;2024-01-30T09:50:25;7.30;96.50
5196;DHT22;2617;51.006;12.436;2024-01-30T09:55:28;7.60;96.50
5196;DHT22;2617;51.006;12.436;2024-01-30T10:00:31;7.60;96.80
5196;DHT22;2617;51.006;12.436;2024-01-30T10:05:33;7.90;96.10
5196;DHT22;2617;51.006;12.436;2024-01-30T10:10:36;8.00;95.50
5196;DHT22;2617;51.006;12.436;2024-01-30T10:15:38;8.10;95.40
5196;DHT22;2617;51.006;12.436;2024-01-30T10:20:41;8.20;95.60
5196;DHT22;2617;51.006;12.436;2024-01-30T10:25:43;8.30;96.10
5196;DHT22;2617;51.006;12.436;2024-01-30T10:30:46;8.40;96.60
5196;DHT22;2617;51.006;12.436;2024-01-30T10:35:49;8.40;96.40
5196;DHT22;2617;51.006;12.436;2024-01-30T10:40:52;8.50;96.30
5196;DHT22;2617;51.006;12.436;2024-01-30T10:45:55;8.60;96.80
5196;DHT22;2617;51.006;12.436;2024-01-30T10:50:58;8.50;96.50
5196;DHT22;2617;51.006;12.436;2024-01-30T10:56:01;8.50;96.40
5196;DHT22;2617;51.006;12.436;2024-01-30T11:01:03;8.50;96.70
5196;DHT22;2617;51.006;12.436;2024-01-30T11:06:10;8.60;97.20
5196;DHT22;2617;51.006;12.436;2024-01-30T11:11:10;8.70;97.20
5196;DHT22;2617;51.006;12.436;2024-01-30T11:16:13;8.80;97.10
5196;DHT22;2617;51.006;12.436;2024-01-30T11:21:16;8.80;97.10
5196;DHT22;2617;51.006;12.436;2024-01-30T11:26:23;9.00;97.40
5196;DHT22;2617;51.006;12.436;2024-01-30T11:31:21;9.00;97.40
5196;DHT22;2617;51.006;12.436;2024-01-30T11:36:25;9.10;97.00
5196;DHT22;2617;51.006;12.436;2024-01-30T11:41:27;9.30;97.30
5196;DHT22;2617;51.006;12.436;2024-01-30T11:46:30;9.50;97.40
5196;DHT22;2617;51.006;12.436;2024-01-30T11:51:33;9.50;97.40
5196;DHT22;2617;51.006;12.436;2024-01-30T11:56:36;9.60;97.00
5196;DHT22;2617;51.006;12.436;2024-01-30T12:01:38;9.80;97.10
5196;DHT22;2617;51.006;12.436;2024-01-30T12:06:40;9.90;97.10
5196;DHT22;2617;51.006;12.436;2024-01-30T12:11:46;10.00;96.30
5196;DHT22;2617;51.006;12.436;2024-01-30T12:16:48;10.00;96.20
5196;DHT22;2617;51.006;12.436;2024-01-30T12:21:57;10.10;96.40
5196;DHT22;2617;51.006;12.436;2024-01-30T12:27:02;10.10;96.10
5196;DHT22;2617;51.006;12.436;2024-01-30T12:32:04;10.10;96.10
5196;DHT22;2617;51.006;12.436;2024-01-30T12:37:07;10.20;96.30
5196;DHT22;2617;51.006;12.436;2024-01-30T12:42:10;10.10;96.30
5196;DHT22;2617;51.006;12.436;2024-01-30T12:47:13;10.20;96.50
5196;DHT22;2617;51.006;12.436;2024-01-30T12:52:17;10.10;96.60
5196;DHT22;2617;51.006;12.436;2024-01-30T12:57:19;10.10;96.60
5196;DHT22;2617;51.006;12.436;2024-01-30T13:02:23;10.00;96.80
5196;DHT22;2617;51.006;12.436;2024-01-30T13:07:25;10.00;97.10
5196;DHT22;2617;51.006;12.436;2024-01-30T13:12:27;10.00;97.10
5196;DHT22;2617;51.006;12.436;2024-01-30T13:17:30;10.10;97.30
5196;DHT22;2617;51.006;12.436;2024-01-30T13:22:32;10.20;97.50
5196;DHT22;2617;51.006;12.436;2024-01-30T13:27:36;10.10;97.10
5196;DHT22;2617;51.006;12.436;2024-01-30T13:32:39;10.20;97.50
5196;DHT22;2617;51.006;12.436;2024-01-30T13:37:41;10.30;97.40
5196;DHT22;2617;51.006;12.436;2024-01-30T13:42:44;10.30;97.40
5196;DHT22;2617;51.006;12.436;2024-01-30T13:47:47;10.30;97.70
5196;DHT22;2617;51.006;12.436;2024-01-30T13:52:49;10.30;97.70
5196;DHT22;2617;51.006;12.436;2024-01-30T13:57:51;10.40;98.00
5196;DHT22;2617;51.006;12.436;2024-01-30T14:02:54;10.40;98.10
5196;DHT22;2617;51.006;12.436;2024-01-30T14:07:57;10.40;98.20
5196;DHT22;2617;51.006;12.436;2024-01-30T14:12:59;10.20;98.70
5196;DHT22;2617;51.006;12.436;2024-01-30T14:18:02;10.20;98.60
5196;DHT22;2617;51.006;12.436;2024-01-30T14:23:04;10.20;98.90
5196;DHT22;2617;51.006;12.436;2024-01-30T14:28:07;10.10;99.00
5196;DHT22;2617;51.006;12.436;2024-01-30T14:33:09;10.00;99.20
5196;DHT22;2617;51.006;12.436;2024-01-30T14:38:12;9.90;99.90
5196;DHT22;2617;51.006;12.436;2024-01-30T14:43:14;9.80;99.90
5196;DHT22;2617;51.006;12.436;2024-01-30T14:48:16;9.70;99.90
5196;DHT22;2617;51.006;12.436;2024-01-30T14:53:20;9.50;99.90
5196;DHT22;2617;51.006;12.436;2024-01-30T14:58:22;9.50;99.90
5196;DHT22;2617;51.006;12.436;2024-01-30T15:03:27;9.20;99.90
5196;DHT22;2617;51.006;12.436;2024-01-30T15:08:28;9.20;99.90
5196;DHT22;2617;51.006;12.436;2024-01-30T15:13:31;9.00;99.90
5196;DHT22;2617;51.006;12.436;2024-01-30T15:18:33;9.00;99.90
5196;DHT22;2617;51.006;12.436;2024-01-30T15:23:36;8.90;99.90
5196;DHT22;2617;51.006;12.436;2024-01-30T15:28:39;8.80;99.90
5196;DHT22;2617;51.006;12.436;2024-01-30T15:33:41;8.80;99.90
5196;DHT22;2617;51.006;12.436;2024-01-30T15:38:44;8.70;99.90
5196;DHT22;2617;51.006;12.436;2024-01-30T15:43:47;8.50;99.90
5196;DHT22;2617;51.006;12.436;2024-01-30T15:48:50;8.40;99.90
5196;DHT22;2617;51.006;12.436;2024-01-30T15:53:53;8.40;99.90
5196;DHT22;2617;51.006;12.436;2024-01-30T15:58:55;8.30;99.90
5196;DHT22;2617;51.006;12.436;2024-01-30T16:03:58;8.30;99.90
5196;DHT22;2617;51.006;12.436;2024-01-30T16:09:01;8.10;99.90
5196;DHT22;2617;51.006;12.436;2024-01-30T16:14:04;8.10;99.90
5196;DHT22;2617;51.006;12.436;2024-01-30T16:19:06;8.00;99.90
5196;DHT22;2617;51.006;12.436;2024-01-30T16:24:08;8.00;99.90
5196;DHT22;2617;51.006;12.436;2024-01-30T16:29:11;7.90;99.90
5196;DHT22;2617;51.006;12.436;2024-01-30T16:34:13;7.90;99.90
5196;DHT22;2617;51.006;12.436;2024-01-30T16:39:16;7.80;99.90
5196;DHT22;2617;51.006;12.436;2024-01-30T16:44:18;7.70;99.90
5196;DHT22;2617;51.006;12.436;2024-01-30T16:49:20;7.70;99.90
5196;DHT22;2617;51.006;12.436;2024-01-30T16:54:24;7.60;99.90
5196;DHT22;2617;51.006;12.436;2024-01-30T16:59:27;7.60;99.90
5196;DHT22;2617;51.006;12.436;2024-01-30T17:04:30;7.50;99.90
5196;DHT22;2617;51.006;12.436;2024-01-30T17:09:33;7.50;99.90
5196;DHT22;2617;51.006;12.436;2024-01-30T17:14:35;7.50;99.90
5196;DHT22;2617;51.006;12.436;2024-01-30T17:19:37;7.40;99.90
5196;DHT22;2617;51.006;12.436;2024-01-30T17:24:40;7.50;99.90
5196;DHT22;2617;51.006;12.436;2024-01-30T17:29:43;7.40;99.90
5196;DHT22;2617;51.006;12.436;2024-01-30T17:34:45;7.50;99.90
5196;DHT22;2617;51.006;12.436;2024-01-30T17:39:48;7.40;99.90
5196;DHT22;2617;51.006;12.436;2024-01-30T17:44:50;7.40;99.90
5196;DHT22;2617;51.006;12.436;2024-01-30T17:49:53;7.40;99.90
5196;DHT22;2617;51.006;12.436;2024-01-30T17:54:55;7.40;99.90
5196;DHT22;2617;51.006;12.436;2024-01-30T17:59:59;7.20;99.90
5196;DHT22;2617;51.006;12.436;2024-01-30T18:05:01;7.20;99.90
5196;DHT22;2617;51.006;12.436;2024-01-30T18:10:04;7.20;99.90
5196;DHT22;2617;51.006;12.436;2024-01-30T18:15:07;7.20;99.90
5196;DHT22;2617;51.006;12.436;2024-01-30T18:20:10;7.20;99.90
5196;DHT22;2617;51.006;12.436;2024-01-30T18:25:12;7.20;99.90
5196;DHT22;2617;51.006;12.436;2024-01-30T18:30:15;7.20;99.90
5196;DHT22;2617;51.006;12.436;2024-01-30T18:35:17;7.20;99.90
5196;DHT22;2617;51.006;12.436;2024-01-30T18:40:19;7.20;99.90
5196;DHT22;2617;51.006;12.436;2024-01-30T18:45:23;7.20;99.90
5196;DHT22;2617;51.006;12.436;2024-01-30T18:50:25;7.20;99.90
5196;DHT22;2617;51.006;12.436;2024-01-30T18:55:28;7.10;99.90
5196;DHT22;2617;51.006;12.436;2024-01-30T19:00:31;7.10;99.90
5196;DHT22;2617;51.006;12.436;2024-01-30T19:05:34;7.00;99.90
5196;DHT22;2617;51.006;12.436;2024-01-30T19:10:37;6.90;99.90
5196;DHT22;2617;51.006;12.436;2024-01-30T19:15:40;6.90;99.90
5196;DHT22;2617;51.006;12.436;2024-01-30T19:20:43;6.80;99.90
5196;DHT22;2617;51.006;12.436;2024-01-30T19:25:45;6.80;99.90
5196;DHT22;2617;51.006;12.436;2024-01-30T19:30:48;6.80;99.90
5196;DHT22;2617;51.006;12.436;2024-01-30T19:35:51;6.70;99.90
5196;DHT22;2617;51.006;12.436;2024-01-30T19:40:53;6.70;99.90
5196;DHT22;2617;51.006;12.436;2024-01-30T19:45:56;6.70;99.90
5196;DHT22;2617;51.006;12.436;2024-01-30T19:51:00;6.60;99.90
5196;DHT22;2617;51.006;12.436;2024-01-30T19:56:02;6.60;99.90
5196;DHT22;2617;51.006;12.436;2024-01-30T20:01:05;6.50;99.90
5196;DHT22;2617;51.006;12.436;2024-01-30T20:06:07;6.50;99.90
5196;DHT22;2617;51.006;12.436;2024-01-30T20:11:13;6.40;99.90
5196;DHT22;2617;51.006;12.436;2024-01-30T20:16:15;6.40;99.90
5196;DHT22;2617;51.006;12.436;2024-01-30T20:21:17;6.30;99.90
5196;DHT22;2617;51.006;12.436;2024-01-30T20:26:19;6.30;99.90
5196;DHT22;2617;51.006;12.436;2024-01-30T20:31:22;6.30;99.90
5196;DHT22;2617;51.006;12.436;2024-01-30T20:36:24;6.20;99.90
5196;DHT22;2617;51.006;12.436;2024-01-30T20:41:27;6.20;99.90
5196;DHT22;2617;51.006;12.436;2024-01-30T20:46:30;6.20;99.90
5196;DHT22;2617;51.006;12.436;2024-01-30T20:51:33;6.20;99.90
5196;DHT22;2617;51.006;12.436;2024-01-30T20:56:35;6.20;99.90
5196;DHT22;2617;51.006;12.436;2024-01-30T21:01:37;6.20;99.90
5196;DHT22;2617;51.006;12.436;2024-01-30T21:06:41;6.20;99.90
5196;DHT22;2617;51.006;12.436;2024-01-30T21:11:43;6.20;99.90
5196;DHT22;2617;51.006;12.436;2024-01-30T21:16:45;6.30;99.90
5196;DHT22;2617;51.006;12.436;2024-01-30T21:21:48;6.30;99.90
5196;DHT22;2617;51.006;12.436;2024-01-30T21:26:50;6.40;99.90
5196;DHT22;2617;51.006;12.436;2024-01-30T21:31:52;6.40;99.90
5196;DHT22;2617;51.006;12.436;2024-01-30T21:36:55;6.40;99.90
5196;DHT22;2617;51.006;12.436;2024-01-30T21:41:57;6.50;99.90
5196;DHT22;2617;51.006;12.436;2024-01-30T21:47:00;6.50;99.90
5196;DHT22;2617;51.006;12.436;2024-01-30T21:52:03;6.60;99.90
5196;DHT22;2617;51.006;12.436;2024-01-30T21:57:06;6.60;99.90
5196;DHT22;2617;51.006;12.436;2024-01-30T22:02:08;6.60;99.90
5196;DHT22;2617;51.006;12.436;2024-01-30T22:07:11;6.60;99.90
5196;DHT22;2617;51.006;12.436;2024-01-30T22:12:13;6.60;99.90
5196;DHT22;2617;51.006;12.436;2024-01-30T22:17:16;6.60;99.90
5196;DHT22;2617;51.006;12.436;2024-01-30T22:22:18;6.70;99.90
5196;DHT22;2617;51.006;12.436;2024-01-30T22:27:20;6.70;99.90
5196;DHT22;2617;51.006;12.436;2024-01-30T22:32:24;6.80;99.90
5196;DHT22;2617;51.006;12.436;2024-01-30T22:37:26;6.70;99.90
5196;DHT22;2617;51.006;12.436;2024-01-30T22:42:28;6.80;99.90
5196;DHT22;2617;51.006;12.436;2024-01-30T22:47:31;6.80;99.90
5196;DHT22;2617;51.006;12.436;2024-01-30T22:52:33;6.80;99.90
5196;DHT22;2617;51.006;12.436;2024-01-30T22:57:36;6.80;99.90
5196;DHT22;2617;51.006;12.436;2024-01-30T23:02:38;6.80;99.90
5196;DHT22;2617;51.006;12.436;2024-01-30T23:07:41;6.80;99.90
5196;DHT22;2617;51.006;12.436;2024-01-30T23:12:43;6.80;99.90
5196;DHT22;2617;51.006;12.436;2024-01-30T23:17:46;6.80;99.90
5196;DHT22;2617;51.006;12.436;2024-01-30T23:22:48;6.80;99.90
5196;DHT22;2617;51.006;12.436;2024-01-30T23:27:51;6.70;99.90
5196;DHT22;2617;51.006;12.436;2024-01-30T23:32:54;6.70;99.90
5196;DHT22;2617;51.006;12.436;2024-01-30T23:37:56;6.70;99.90
5196;DHT22;2617;51.006;12.436;2024-01-30T23:42:58;6.70;99.90
5196;DHT22;2617;51.006;12.436;2024-01-30T23:48:01;6.70;99.90
5196;DHT22;2617;51.006;12.436;2024-01-30T23:53:03;6.60;99.90
5196;DHT22;2617;51.006;12.436;2024-01-30T23:58:06;6.70;99.90
